sensor_id;sensor_type;location;lat;lon;timestamp;P1;durP1;ratioP1;P2;durP2;ratioP2
830;SDS011;397;50.564;7.272;2022-10-17T00:00:44;8.23;;;7.43;;
830;SDS011;397;50.564;7.272;2022-10-17T00:03:12;8.10;;;7.10;;
830;SDS011;397;50.564;7.272;2022-10-17T00:05:40;8.40;;;7.17;;
830;SDS011;397;50.564;7.272;2022-10-17T00:08:10;11.50;;;7.00;;
830;SDS011;397;50.564;7.272;2022-10-17T00:10:39;7.13;;;6.43;;
830;SDS011;397;50.564;7.272;2022-10-17T00:13:08;7.67;;;6.97;;
830;SDS011;397;50.564;7.272;2022-10-17T00:15:36;7.57;;;6.77;;
830;SDS011;397;50.564;7.272;2022-10-17T00:18:03;8.33;;;5.87;;
830;SDS011;397;50.564;7.272;2022-10-17T00:20:33;6.90;;;6.30;;
830;SDS011;397;50.564;7.272;2022-10-17T00:23:01;6.70;;;6.00;;
830;SDS011;397;50.564;7.272;2022-10-17T00:25:28;7.77;;;7.03;;
830;SDS011;397;50.564;7.272;2022-10-17T00:27:56;8.47;;;7.67;;
830;SDS011;397;50.564;7.272;2022-10-17T00:30:23;6.53;;;6.00;;
830;SDS011;397;50.564;7.272;2022-10-17T00:32:51;7.53;;;6.73;;
830;SDS011;397;50.564;7.272;2022-10-17T00:35:18;7.93;;;7.23;;
830;SDS011;397;50.564;7.272;2022-10-17T00:37:46;8.30;;;6.67;;
830;SDS011;397;50.564;7.272;2022-10-17T00:40:14;7.80;;;7.07;;
830;SDS011;397;50.564;7.272;2022-10-17T00:42:41;9.83;;;7.13;;
830;SDS011;397;50.564;7.272;2022-10-17T00:45:13;8.30;;;7.50;;
830;SDS011;397;50.564;7.272;2022-10-17T00:47:46;10.80;;;7.97;;
830;SDS011;397;50.564;7.272;2022-10-17T00:50:16;9.20;;;7.77;;
830;SDS011;397;50.564;7.272;2022-10-17T00:52:45;8.70;;;7.57;;
830;SDS011;397;50.564;7.272;2022-10-17T00:57:45;9.67;;;8.87;;
830;SDS011;397;50.564;7.272;2022-10-17T01:00:14;8.60;;;7.67;;
830;SDS011;397;50.564;7.272;2022-10-17T01:02:43;9.73;;;8.93;;
830;SDS011;397;50.564;7.272;2022-10-17T01:05:11;9.43;;;7.80;;
830;SDS011;397;50.564;7.272;2022-10-17T01:07:41;10.87;;;9.70;;
830;SDS011;397;50.564;7.272;2022-10-17T01:10:09;9.97;;;9.00;;
830;SDS011;397;50.564;7.272;2022-10-17T01:15:22;11.57;;;10.47;;
830;SDS011;397;50.564;7.272;2022-10-17T01:18:22;11.07;;;9.87;;
830;SDS011;397;50.564;7.272;2022-10-17T01:21:01;13.40;;;9.80;;
830;SDS011;397;50.564;7.272;2022-10-17T01:23:55;10.30;;;9.30;;
830;SDS011;397;50.564;7.272;2022-10-17T01:26:43;11.80;;;8.73;;
830;SDS011;397;50.564;7.272;2022-10-17T01:29:23;9.40;;;8.60;;
830;SDS011;397;50.564;7.272;2022-10-17T01:32:01;11.33;;;10.20;;
830;SDS011;397;50.564;7.272;2022-10-17T01:34:32;9.80;;;8.90;;
830;SDS011;397;50.564;7.272;2022-10-17T01:37:03;12.23;;;8.77;;
830;SDS011;397;50.564;7.272;2022-10-17T01:42:54;9.60;;;8.67;;
830;SDS011;397;50.564;7.272;2022-10-17T01:45:28;11.23;;;9.63;;
830;SDS011;397;50.564;7.272;2022-10-17T01:48:01;12.00;;;10.40;;
830;SDS011;397;50.564;7.272;2022-10-17T01:50:32;9.80;;;8.80;;
830;SDS011;397;50.564;7.272;2022-10-17T01:53:04;9.50;;;8.60;;
830;SDS011;397;50.564;7.272;2022-10-17T01:55:33;9.60;;;8.60;;
830;SDS011;397;50.564;7.272;2022-10-17T01:58:11;9.57;;;8.47;;
830;SDS011;397;50.564;7.272;2022-10-17T02:00:43;14.70;;;8.47;;
830;SDS011;397;50.564;7.272;2022-10-17T02:03:13;10.93;;;9.83;;
830;SDS011;397;50.564;7.272;2022-10-17T02:05:45;9.00;;;8.13;;
830;SDS011;397;50.564;7.272;2022-10-17T02:08:13;10.30;;;8.97;;
830;SDS011;397;50.564;7.272;2022-10-17T02:10:46;9.13;;;8.20;;
830;SDS011;397;50.564;7.272;2022-10-17T02:16:16;9.57;;;8.37;;
830;SDS011;397;50.564;7.272;2022-10-17T02:24:06;11.53;;;8.27;;
830;SDS011;397;50.564;7.272;2022-10-17T02:26:38;10.40;;;8.53;;
830;SDS011;397;50.564;7.272;2022-10-17T02:29:15;10.60;;;9.10;;
830;SDS011;397;50.564;7.272;2022-10-17T02:31:55;9.50;;;8.53;;
830;SDS011;397;50.564;7.272;2022-10-17T02:34:28;10.97;;;8.23;;
830;SDS011;397;50.564;7.272;2022-10-17T02:36:54;9.50;;;8.60;;
830;SDS011;397;50.564;7.272;2022-10-17T02:39:23;11.17;;;8.63;;
830;SDS011;397;50.564;7.272;2022-10-17T02:41:52;9.20;;;8.30;;
830;SDS011;397;50.564;7.272;2022-10-17T02:44:22;11.90;;;8.40;;
830;SDS011;397;50.564;7.272;2022-10-17T02:46:53;17.87;;;9.00;;
830;SDS011;397;50.564;7.272;2022-10-17T02:49:23;10.83;;;8.57;;
830;SDS011;397;50.564;7.272;2022-10-17T02:51:57;11.27;;;8.37;;
830;SDS011;397;50.564;7.272;2022-10-17T02:54:31;11.77;;;8.70;;
830;SDS011;397;50.564;7.272;2022-10-17T02:57:07;10.00;;;7.27;;
830;SDS011;397;50.564;7.272;2022-10-17T02:59:36;8.10;;;7.30;;
830;SDS011;397;50.564;7.272;2022-10-17T03:02:06;10.33;;;9.43;;
830;SDS011;397;50.564;7.272;2022-10-17T03:04:34;13.73;;;9.27;;
830;SDS011;397;50.564;7.272;2022-10-17T03:07:01;9.87;;;8.33;;
830;SDS011;397;50.564;7.272;2022-10-17T03:09:29;14.53;;;8.63;;
830;SDS011;397;50.564;7.272;2022-10-17T03:11:56;8.73;;;7.83;;
830;SDS011;397;50.564;7.272;2022-10-17T03:14:24;11.53;;;8.00;;
830;SDS011;397;50.564;7.272;2022-10-17T03:16:51;14.67;;;7.60;;
830;SDS011;397;50.564;7.272;2022-10-17T03:19:19;8.53;;;7.63;;
830;SDS011;397;50.564;7.272;2022-10-17T03:21:46;9.60;;;7.63;;
830;SDS011;397;50.564;7.272;2022-10-17T03:24:14;8.73;;;7.83;;
830;SDS011;397;50.564;7.272;2022-10-17T03:26:41;12.83;;;8.13;;
830;SDS011;397;50.564;7.272;2022-10-17T03:29:09;11.17;;;7.80;;
830;SDS011;397;50.564;7.272;2022-10-17T03:31:37;8.27;;;7.57;;
830;SDS011;397;50.564;7.272;2022-10-17T03:34:04;8.07;;;7.27;;
830;SDS011;397;50.564;7.272;2022-10-17T03:36:31;9.23;;;7.33;;
830;SDS011;397;50.564;7.272;2022-10-17T03:38:59;8.57;;;7.77;;
830;SDS011;397;50.564;7.272;2022-10-17T03:41:27;9.47;;;8.47;;
830;SDS011;397;50.564;7.272;2022-10-17T03:43:54;9.33;;;8.40;;
830;SDS011;397;50.564;7.272;2022-10-17T03:46:22;9.43;;;8.40;;
830;SDS011;397;50.564;7.272;2022-10-17T03:48:49;8.40;;;7.47;;
830;SDS011;397;50.564;7.272;2022-10-17T03:51:17;8.80;;;8.00;;
830;SDS011;397;50.564;7.272;2022-10-17T03:53:44;9.87;;;8.30;;
830;SDS011;397;50.564;7.272;2022-10-17T03:56:21;10.23;;;8.27;;
830;SDS011;397;50.564;7.272;2022-10-17T03:58:45;8.60;;;7.80;;
830;SDS011;397;50.564;7.272;2022-10-17T04:01:14;8.60;;;7.63;;
830;SDS011;397;50.564;7.272;2022-10-17T04:03:43;7.80;;;7.00;;
830;SDS011;397;50.564;7.272;2022-10-17T04:06:16;8.70;;;7.30;;
830;SDS011;397;50.564;7.272;2022-10-17T04:08:43;11.40;;;8.17;;
830;SDS011;397;50.564;7.272;2022-10-17T04:11:17;9.80;;;8.80;;
830;SDS011;397;50.564;7.272;2022-10-17T04:13:41;9.13;;;8.20;;
830;SDS011;397;50.564;7.272;2022-10-17T04:16:09;11.90;;;7.40;;
830;SDS011;397;50.564;7.272;2022-10-17T04:18:40;11.83;;;7.83;;
830;SDS011;397;50.564;7.272;2022-10-17T04:21:08;10.23;;;7.13;;
830;SDS011;397;50.564;7.272;2022-10-17T04:23:36;9.27;;;8.23;;
830;SDS011;397;50.564;7.272;2022-10-17T04:26:03;8.23;;;7.10;;
830;SDS011;397;50.564;7.272;2022-10-17T04:28:32;10.43;;;8.03;;
830;SDS011;397;50.564;7.272;2022-10-17T04:31:00;7.50;;;6.47;;
830;SDS011;397;50.564;7.272;2022-10-17T04:33:30;8.43;;;7.13;;
830;SDS011;397;50.564;7.272;2022-10-17T04:36:07;11.83;;;6.87;;
830;SDS011;397;50.564;7.272;2022-10-17T04:38:32;8.90;;;7.00;;
830;SDS011;397;50.564;7.272;2022-10-17T04:41:00;8.27;;;7.47;;
830;SDS011;397;50.564;7.272;2022-10-17T04:43:30;8.60;;;7.20;;
830;SDS011;397;50.564;7.272;2022-10-17T04:45:59;8.20;;;7.40;;
830;SDS011;397;50.564;7.272;2022-10-17T04:48:28;13.47;;;9.13;;
830;SDS011;397;50.564;7.272;2022-10-17T04:50:57;10.77;;;8.53;;
830;SDS011;397;50.564;7.272;2022-10-17T04:53:27;9.80;;;8.87;;
830;SDS011;397;50.564;7.272;2022-10-17T04:55:56;8.73;;;7.90;;
830;SDS011;397;50.564;7.272;2022-10-17T04:58:24;10.90;;;7.97;;
830;SDS011;397;50.564;7.272;2022-10-17T05:00:54;8.53;;;7.13;;
830;SDS011;397;50.564;7.272;2022-10-17T05:03:22;9.70;;;7.60;;
830;SDS011;397;50.564;7.272;2022-10-17T05:05:50;11.60;;;9.13;;
830;SDS011;397;50.564;7.272;2022-10-17T05:08:17;13.90;;;10.50;;
830;SDS011;397;50.564;7.272;2022-10-17T05:10:45;11.20;;;9.40;;
830;SDS011;397;50.564;7.272;2022-10-17T05:13:12;11.63;;;9.47;;
830;SDS011;397;50.564;7.272;2022-10-17T05:15:40;12.50;;;8.97;;
830;SDS011;397;50.564;7.272;2022-10-17T05:18:07;12.57;;;9.60;;
830;SDS011;397;50.564;7.272;2022-10-17T05:20:35;10.23;;;9.17;;
830;SDS011;397;50.564;7.272;2022-10-17T05:23:03;11.17;;;10.20;;
830;SDS011;397;50.564;7.272;2022-10-17T05:25:30;16.27;;;8.87;;
830;SDS011;397;50.564;7.272;2022-10-17T05:27:58;7.77;;;7.07;;
830;SDS011;397;50.564;7.272;2022-10-17T05:30:25;14.17;;;8.43;;
830;SDS011;397;50.564;7.272;2022-10-17T05:32:53;11.60;;;8.93;;
830;SDS011;397;50.564;7.272;2022-10-17T05:35:21;9.27;;;8.37;;
830;SDS011;397;50.564;7.272;2022-10-17T05:37:49;9.57;;;8.77;;
830;SDS011;397;50.564;7.272;2022-10-17T05:40:16;8.60;;;7.70;;
830;SDS011;397;50.564;7.272;2022-10-17T05:42:47;9.17;;;7.73;;
830;SDS011;397;50.564;7.272;2022-10-17T05:45:14;8.60;;;7.80;;
830;SDS011;397;50.564;7.272;2022-10-17T05:47:42;10.90;;;8.77;;
830;SDS011;397;50.564;7.272;2022-10-17T05:50:10;9.27;;;8.30;;
830;SDS011;397;50.564;7.272;2022-10-17T05:52:38;8.67;;;7.97;;
830;SDS011;397;50.564;7.272;2022-10-17T05:55:06;8.77;;;7.97;;
830;SDS011;397;50.564;7.272;2022-10-17T05:57:34;8.50;;;7.60;;
830;SDS011;397;50.564;7.272;2022-10-17T06:00:02;9.83;;;8.83;;
830;SDS011;397;50.564;7.272;2022-10-17T06:02:31;9.03;;;8.23;;
830;SDS011;397;50.564;7.272;2022-10-17T06:04:58;9.23;;;8.43;;
830;SDS011;397;50.564;7.272;2022-10-17T06:07:26;10.83;;;8.30;;
830;SDS011;397;50.564;7.272;2022-10-17T06:09:53;8.57;;;7.70;;
830;SDS011;397;50.564;7.272;2022-10-17T06:12:22;9.57;;;8.40;;
830;SDS011;397;50.564;7.272;2022-10-17T06:14:50;9.80;;;8.80;;
830;SDS011;397;50.564;7.272;2022-10-17T06:17:17;9.80;;;8.40;;
830;SDS011;397;50.564;7.272;2022-10-17T06:19:45;9.30;;;8.40;;
830;SDS011;397;50.564;7.272;2022-10-17T06:22:12;15.93;;;9.80;;
830;SDS011;397;50.564;7.272;2022-10-17T06:24:40;10.93;;;7.30;;
830;SDS011;397;50.564;7.272;2022-10-17T06:27:08;13.07;;;7.90;;
830;SDS011;397;50.564;7.272;2022-10-17T06:29:35;6.93;;;6.20;;
830;SDS011;397;50.564;7.272;2022-10-17T06:32:03;7.57;;;6.90;;
830;SDS011;397;50.564;7.272;2022-10-17T06:34:31;9.23;;;7.60;;
830;SDS011;397;50.564;7.272;2022-10-17T06:36:58;8.67;;;7.73;;
830;SDS011;397;50.564;7.272;2022-10-17T06:39:26;9.77;;;7.37;;
830;SDS011;397;50.564;7.272;2022-10-17T06:41:55;8.83;;;7.07;;
830;SDS011;397;50.564;7.272;2022-10-17T06:44:22;9.50;;;7.73;;
830;SDS011;397;50.564;7.272;2022-10-17T06:46:51;8.07;;;7.27;;
830;SDS011;397;50.564;7.272;2022-10-17T06:49:19;9.77;;;7.00;;
830;SDS011;397;50.564;7.272;2022-10-17T06:51:46;10.50;;;5.60;;
830;SDS011;397;50.564;7.272;2022-10-17T06:54:14;7.20;;;6.23;;
830;SDS011;397;50.564;7.272;2022-10-17T06:56:41;8.87;;;5.80;;
830;SDS011;397;50.564;7.272;2022-10-17T06:59:09;8.50;;;6.23;;
830;SDS011;397;50.564;7.272;2022-10-17T07:01:37;8.13;;;5.70;;
830;SDS011;397;50.564;7.272;2022-10-17T07:04:04;10.73;;;6.10;;
830;SDS011;397;50.564;7.272;2022-10-17T07:06:32;6.73;;;6.13;;
830;SDS011;397;50.564;7.272;2022-10-17T07:09:00;11.10;;;5.60;;
830;SDS011;397;50.564;7.272;2022-10-17T07:11:28;9.37;;;5.87;;
830;SDS011;397;50.564;7.272;2022-10-17T07:13:55;14.60;;;6.33;;
830;SDS011;397;50.564;7.272;2022-10-17T07:16:23;7.17;;;4.70;;
830;SDS011;397;50.564;7.272;2022-10-17T07:18:50;5.83;;;5.33;;
830;SDS011;397;50.564;7.272;2022-10-17T07:21:19;8.20;;;5.23;;
830;SDS011;397;50.564;7.272;2022-10-17T07:23:47;8.50;;;6.50;;
830;SDS011;397;50.564;7.272;2022-10-17T07:26:15;9.83;;;5.70;;
830;SDS011;397;50.564;7.272;2022-10-17T07:28:44;6.33;;;5.10;;
830;SDS011;397;50.564;7.272;2022-10-17T07:31:14;11.07;;;5.80;;
830;SDS011;397;50.564;7.272;2022-10-17T07:33:43;9.27;;;6.50;;
830;SDS011;397;50.564;7.272;2022-10-17T07:36:13;8.43;;;6.77;;
830;SDS011;397;50.564;7.272;2022-10-17T07:38:40;7.13;;;6.00;;
830;SDS011;397;50.564;7.272;2022-10-17T07:41:09;7.90;;;6.53;;
830;SDS011;397;50.564;7.272;2022-10-17T07:43:38;6.13;;;5.37;;
830;SDS011;397;50.564;7.272;2022-10-17T07:46:07;7.73;;;5.63;;
830;SDS011;397;50.564;7.272;2022-10-17T07:48:37;8.07;;;5.63;;
830;SDS011;397;50.564;7.272;2022-10-17T07:51:05;5.73;;;5.23;;
830;SDS011;397;50.564;7.272;2022-10-17T07:53:35;7.30;;;5.63;;
830;SDS011;397;50.564;7.272;2022-10-17T07:56:06;7.37;;;5.53;;
830;SDS011;397;50.564;7.272;2022-10-17T07:58:34;9.23;;;5.40;;
830;SDS011;397;50.564;7.272;2022-10-17T08:01:03;9.13;;;5.50;;
830;SDS011;397;50.564;7.272;2022-10-17T08:03:33;8.80;;;5.70;;
830;SDS011;397;50.564;7.272;2022-10-17T08:06:00;5.80;;;4.90;;
830;SDS011;397;50.564;7.272;2022-10-17T08:08:29;5.60;;;5.10;;
830;SDS011;397;50.564;7.272;2022-10-17T08:11:00;5.60;;;4.83;;
830;SDS011;397;50.564;7.272;2022-10-17T08:13:30;5.83;;;4.90;;
830;SDS011;397;50.564;7.272;2022-10-17T08:15:58;12.30;;;5.40;;
830;SDS011;397;50.564;7.272;2022-10-17T08:18:27;5.07;;;4.23;;
830;SDS011;397;50.564;7.272;2022-10-17T08:21:01;6.73;;;5.13;;
830;SDS011;397;50.564;7.272;2022-10-17T08:23:26;6.53;;;4.50;;
830;SDS011;397;50.564;7.272;2022-10-17T08:25:53;4.93;;;4.37;;
830;SDS011;397;50.564;7.272;2022-10-17T08:28:22;5.93;;;5.33;;
830;SDS011;397;50.564;7.272;2022-10-17T08:30:50;6.33;;;5.30;;
830;SDS011;397;50.564;7.272;2022-10-17T08:33:17;7.37;;;4.60;;
830;SDS011;397;50.564;7.272;2022-10-17T08:35:45;5.53;;;4.80;;
830;SDS011;397;50.564;7.272;2022-10-17T08:38:12;5.37;;;4.27;;
830;SDS011;397;50.564;7.272;2022-10-17T08:40:40;6.43;;;4.50;;
830;SDS011;397;50.564;7.272;2022-10-17T08:45:59;8.37;;;4.47;;
830;SDS011;397;50.564;7.272;2022-10-17T08:48:28;7.90;;;4.73;;
830;SDS011;397;50.564;7.272;2022-10-17T08:51:05;5.10;;;4.07;;
830;SDS011;397;50.564;7.272;2022-10-17T08:53:44;6.83;;;5.00;;
830;SDS011;397;50.564;7.272;2022-10-17T08:56:17;7.60;;;4.83;;
830;SDS011;397;50.564;7.272;2022-10-17T08:58:45;6.43;;;4.60;;
830;SDS011;397;50.564;7.272;2022-10-17T09:01:32;7.90;;;4.70;;
830;SDS011;397;50.564;7.272;2022-10-17T09:04:12;7.80;;;4.73;;
830;SDS011;397;50.564;7.272;2022-10-17T09:06:53;5.97;;;4.80;;
830;SDS011;397;50.564;7.272;2022-10-17T09:17:55;12.47;;;4.90;;
830;SDS011;397;50.564;7.272;2022-10-17T09:20:25;7.93;;;4.80;;
830;SDS011;397;50.564;7.272;2022-10-17T09:22:58;7.40;;;5.13;;
830;SDS011;397;50.564;7.272;2022-10-17T09:25:28;9.67;;;4.33;;
830;SDS011;397;50.564;7.272;2022-10-17T09:28:03;6.77;;;4.30;;
830;SDS011;397;50.564;7.272;2022-10-17T09:33:16;6.50;;;4.87;;
830;SDS011;397;50.564;7.272;2022-10-17T09:35:45;7.00;;;4.83;;
830;SDS011;397;50.564;7.272;2022-10-17T09:38:16;5.83;;;5.27;;
830;SDS011;397;50.564;7.272;2022-10-17T09:40:48;6.07;;;4.00;;
830;SDS011;397;50.564;7.272;2022-10-17T09:43:16;8.00;;;4.70;;
830;SDS011;397;50.564;7.272;2022-10-17T09:48:36;6.30;;;4.60;;
830;SDS011;397;50.564;7.272;2022-10-17T09:51:07;7.90;;;4.80;;
830;SDS011;397;50.564;7.272;2022-10-17T09:53:37;4.37;;;3.97;;
830;SDS011;397;50.564;7.272;2022-10-17T09:56:07;11.33;;;4.07;;
830;SDS011;397;50.564;7.272;2022-10-17T09:58:44;6.07;;;4.07;;
830;SDS011;397;50.564;7.272;2022-10-17T10:01:19;6.50;;;5.10;;
830;SDS011;397;50.564;7.272;2022-10-17T10:03:44;7.10;;;4.40;;
830;SDS011;397;50.564;7.272;2022-10-17T10:06:13;5.70;;;4.83;;
830;SDS011;397;50.564;7.272;2022-10-17T10:08:49;7.60;;;4.93;;
830;SDS011;397;50.564;7.272;2022-10-17T10:11:22;7.13;;;4.57;;
830;SDS011;397;50.564;7.272;2022-10-17T10:13:52;5.00;;;4.50;;
830;SDS011;397;50.564;7.272;2022-10-17T10:16:20;6.53;;;5.00;;
830;SDS011;397;50.564;7.272;2022-10-17T10:18:50;4.77;;;4.20;;
830;SDS011;397;50.564;7.272;2022-10-17T10:21:19;5.80;;;3.90;;
830;SDS011;397;50.564;7.272;2022-10-17T10:24:05;5.90;;;4.70;;
830;SDS011;397;50.564;7.272;2022-10-17T10:26:38;8.83;;;5.00;;
830;SDS011;397;50.564;7.272;2022-10-17T10:32:10;4.80;;;4.10;;
830;SDS011;397;50.564;7.272;2022-10-17T10:37:35;13.17;;;5.20;;
830;SDS011;397;50.564;7.272;2022-10-17T10:40:53;7.57;;;4.57;;
830;SDS011;397;50.564;7.272;2022-10-17T10:42:45;4.80;;;4.30;;
830;SDS011;397;50.564;7.272;2022-10-17T10:47:49;5.63;;;4.10;;
830;SDS011;397;50.564;7.272;2022-10-17T10:50:27;4.93;;;4.43;;
830;SDS011;397;50.564;7.272;2022-10-17T10:56:03;5.87;;;4.00;;
830;SDS011;397;50.564;7.272;2022-10-17T11:01:28;6.23;;;4.33;;
830;SDS011;397;50.564;7.272;2022-10-17T11:06:47;5.00;;;3.93;;
830;SDS011;397;50.564;7.272;2022-10-17T11:09:36;7.53;;;4.63;;
830;SDS011;397;50.564;7.272;2022-10-17T11:12:16;10.30;;;4.57;;
830;SDS011;397;50.564;7.272;2022-10-17T11:14:51;7.45;;;4.20;;
830;SDS011;397;50.564;7.272;2022-10-17T11:17:38;6.23;;;3.90;;
830;SDS011;397;50.564;7.272;2022-10-17T11:23:01;8.83;;;4.70;;
830;SDS011;397;50.564;7.272;2022-10-17T11:25:33;6.17;;;4.47;;
830;SDS011;397;50.564;7.272;2022-10-17T11:28:03;5.87;;;4.40;;
830;SDS011;397;50.564;7.272;2022-10-17T11:30:59;5.97;;;4.13;;
830;SDS011;397;50.564;7.272;2022-10-17T11:33:28;7.43;;;4.57;;
830;SDS011;397;50.564;7.272;2022-10-17T11:36:07;10.40;;;4.77;;
830;SDS011;397;50.564;7.272;2022-10-17T11:38:50;6.10;;;4.40;;
830;SDS011;397;50.564;7.272;2022-10-17T11:41:29;9.03;;;4.80;;
830;SDS011;397;50.564;7.272;2022-10-17T11:44:03;5.77;;;4.47;;
830;SDS011;397;50.564;7.272;2022-10-17T11:46:32;7.30;;;4.80;;
830;SDS011;397;50.564;7.272;2022-10-17T11:49:06;6.60;;;3.87;;
830;SDS011;397;50.564;7.272;2022-10-17T11:51:41;6.00;;;4.10;;
830;SDS011;397;50.564;7.272;2022-10-17T11:54:13;10.40;;;3.70;;
830;SDS011;397;50.564;7.272;2022-10-17T11:56:57;5.83;;;3.83;;
830;SDS011;397;50.564;7.272;2022-10-17T12:02:22;6.30;;;4.40;;
830;SDS011;397;50.564;7.272;2022-10-17T12:08:04;10.40;;;4.70;;
830;SDS011;397;50.564;7.272;2022-10-17T12:10:43;8.03;;;4.23;;
830;SDS011;397;50.564;7.272;2022-10-17T12:19:30;4.90;;;3.90;;
830;SDS011;397;50.564;7.272;2022-10-17T12:24:34;6.40;;;4.60;;
830;SDS011;397;50.564;7.272;2022-10-17T12:33:00;4.50;;;3.67;;
830;SDS011;397;50.564;7.272;2022-10-17T12:35:38;5.30;;;3.93;;
830;SDS011;397;50.564;7.272;2022-10-17T12:40:46;6.00;;;4.00;;
830;SDS011;397;50.564;7.272;2022-10-17T12:46:01;9.07;;;4.10;;
830;SDS011;397;50.564;7.272;2022-10-17T12:56:34;11.30;;;4.67;;
830;SDS011;397;50.564;7.272;2022-10-17T12:59:00;7.60;;;4.93;;
830;SDS011;397;50.564;7.272;2022-10-17T13:01:48;8.33;;;5.20;;
830;SDS011;397;50.564;7.272;2022-10-17T13:04:18;5.37;;;3.80;;
830;SDS011;397;50.564;7.272;2022-10-17T13:06:47;10.23;;;4.03;;
830;SDS011;397;50.564;7.272;2022-10-17T13:11:49;10.50;;;4.77;;
830;SDS011;397;50.564;7.272;2022-10-17T13:14:18;8.40;;;3.80;;
830;SDS011;397;50.564;7.272;2022-10-17T13:16:52;10.07;;;4.43;;
830;SDS011;397;50.564;7.272;2022-10-17T13:19:25;10.03;;;3.83;;
830;SDS011;397;50.564;7.272;2022-10-17T13:22:00;8.63;;;4.40;;
830;SDS011;397;50.564;7.272;2022-10-17T13:27:02;11.00;;;4.63;;
830;SDS011;397;50.564;7.272;2022-10-17T13:29:31;4.33;;;3.27;;
830;SDS011;397;50.564;7.272;2022-10-17T13:32:00;8.73;;;3.70;;
830;SDS011;397;50.564;7.272;2022-10-17T13:34:30;13.90;;;5.60;;
830;SDS011;397;50.564;7.272;2022-10-17T13:37:00;14.00;;;4.70;;
830;SDS011;397;50.564;7.272;2022-10-17T13:39:35;6.47;;;3.43;;
830;SDS011;397;50.564;7.272;2022-10-17T13:42:04;5.40;;;3.83;;
830;SDS011;397;50.564;7.272;2022-10-17T13:44:32;9.13;;;3.87;;
830;SDS011;397;50.564;7.272;2022-10-17T13:47:01;5.33;;;3.10;;
830;SDS011;397;50.564;7.272;2022-10-17T13:49:36;5.73;;;3.47;;
830;SDS011;397;50.564;7.272;2022-10-17T13:52:05;3.67;;;3.13;;
830;SDS011;397;50.564;7.272;2022-10-17T13:54:39;6.87;;;4.00;;
830;SDS011;397;50.564;7.272;2022-10-17T13:57:43;10.13;;;4.23;;
830;SDS011;397;50.564;7.272;2022-10-17T13:59:47;5.73;;;4.13;;
830;SDS011;397;50.564;7.272;2022-10-17T14:02:21;5.53;;;3.27;;
830;SDS011;397;50.564;7.272;2022-10-17T14:10:24;9.00;;;3.63;;
830;SDS011;397;50.564;7.272;2022-10-17T14:12:59;10.83;;;4.10;;
830;SDS011;397;50.564;7.272;2022-10-17T14:15:29;7.27;;;3.80;;
830;SDS011;397;50.564;7.272;2022-10-17T14:18:04;11.80;;;4.37;;
830;SDS011;397;50.564;7.272;2022-10-17T14:20:29;12.93;;;4.13;;
830;SDS011;397;50.564;7.272;2022-10-17T14:22:58;7.80;;;3.50;;
830;SDS011;397;50.564;7.272;2022-10-17T14:25:27;6.63;;;2.93;;
830;SDS011;397;50.564;7.272;2022-10-17T14:28:10;9.27;;;4.23;;
830;SDS011;397;50.564;7.272;2022-10-17T14:30:33;5.57;;;3.70;;
830;SDS011;397;50.564;7.272;2022-10-17T14:33:06;6.00;;;3.33;;
830;SDS011;397;50.564;7.272;2022-10-17T14:35:33;6.57;;;4.13;;
830;SDS011;397;50.564;7.272;2022-10-17T14:38:02;6.37;;;3.30;;
830;SDS011;397;50.564;7.272;2022-10-17T14:40:32;8.37;;;4.00;;
830;SDS011;397;50.564;7.272;2022-10-17T14:43:02;11.13;;;4.73;;
830;SDS011;397;50.564;7.272;2022-10-17T14:45:32;6.20;;;3.33;;
830;SDS011;397;50.564;7.272;2022-10-17T14:53:37;10.60;;;4.47;;
830;SDS011;397;50.564;7.272;2022-10-17T14:56:20;7.67;;;3.47;;
830;SDS011;397;50.564;7.272;2022-10-17T14:58:47;143.33;;;36.53;;
830;SDS011;397;50.564;7.272;2022-10-17T15:01:16;88.07;;;22.10;;
830;SDS011;397;50.564;7.272;2022-10-17T15:03:44;16.20;;;6.00;;
830;SDS011;397;50.564;7.272;2022-10-17T15:06:18;10.30;;;3.77;;
830;SDS011;397;50.564;7.272;2022-10-17T15:08:48;9.20;;;3.80;;
830;SDS011;397;50.564;7.272;2022-10-17T15:11:16;5.03;;;3.20;;
830;SDS011;397;50.564;7.272;2022-10-17T15:13:43;7.00;;;3.40;;
830;SDS011;397;50.564;7.272;2022-10-17T15:16:14;8.13;;;3.70;;
830;SDS011;397;50.564;7.272;2022-10-17T15:18:44;7.93;;;3.80;;
830;SDS011;397;50.564;7.272;2022-10-17T15:21:12;7.90;;;3.67;;
830;SDS011;397;50.564;7.272;2022-10-17T15:23:42;8.93;;;3.27;;
830;SDS011;397;50.564;7.272;2022-10-17T15:26:18;7.43;;;3.40;;
830;SDS011;397;50.564;7.272;2022-10-17T15:28:43;9.80;;;3.20;;
830;SDS011;397;50.564;7.272;2022-10-17T15:31:13;11.07;;;5.10;;
830;SDS011;397;50.564;7.272;2022-10-17T15:33:42;8.83;;;5.60;;
830;SDS011;397;50.564;7.272;2022-10-17T15:36:20;12.73;;;6.10;;
830;SDS011;397;50.564;7.272;2022-10-17T15:38:50;5.60;;;4.20;;
830;SDS011;397;50.564;7.272;2022-10-17T15:41:21;10.53;;;3.60;;
830;SDS011;397;50.564;7.272;2022-10-17T15:43:50;6.57;;;3.70;;
830;SDS011;397;50.564;7.272;2022-10-17T15:46:19;8.60;;;6.17;;
830;SDS011;397;50.564;7.272;2022-10-17T15:48:54;7.07;;;4.40;;
830;SDS011;397;50.564;7.272;2022-10-17T15:51:24;9.43;;;4.70;;
830;SDS011;397;50.564;7.272;2022-10-17T15:53:51;9.87;;;4.33;;
830;SDS011;397;50.564;7.272;2022-10-17T15:56:22;9.80;;;4.80;;
830;SDS011;397;50.564;7.272;2022-10-17T15:58:52;5.57;;;3.70;;
830;SDS011;397;50.564;7.272;2022-10-17T16:01:21;9.20;;;5.47;;
830;SDS011;397;50.564;7.272;2022-10-17T16:03:54;12.37;;;3.97;;
830;SDS011;397;50.564;7.272;2022-10-17T16:06:22;9.53;;;4.97;;
830;SDS011;397;50.564;7.272;2022-10-17T16:08:50;7.53;;;4.53;;
830;SDS011;397;50.564;7.272;2022-10-17T16:11:41;7.07;;;4.57;;
830;SDS011;397;50.564;7.272;2022-10-17T16:14:09;11.57;;;5.40;;
830;SDS011;397;50.564;7.272;2022-10-17T16:16:34;16.80;;;11.50;;
830;SDS011;397;50.564;7.272;2022-10-17T16:19:02;26.93;;;21.27;;
830;SDS011;397;50.564;7.272;2022-10-17T16:21:30;14.90;;;10.23;;
830;SDS011;397;50.564;7.272;2022-10-17T16:24:00;5.40;;;4.63;;
830;SDS011;397;50.564;7.272;2022-10-17T16:26:29;12.70;;;5.57;;
830;SDS011;397;50.564;7.272;2022-10-17T16:28:57;8.90;;;5.93;;
830;SDS011;397;50.564;7.272;2022-10-17T16:31:27;10.63;;;5.00;;
830;SDS011;397;50.564;7.272;2022-10-17T16:34:00;9.33;;;4.53;;
830;SDS011;397;50.564;7.272;2022-10-17T16:36:29;10.73;;;5.40;;
830;SDS011;397;50.564;7.272;2022-10-17T16:38:56;10.90;;;6.13;;
830;SDS011;397;50.564;7.272;2022-10-17T16:41:28;8.40;;;4.43;;
830;SDS011;397;50.564;7.272;2022-10-17T16:43:58;15.30;;;5.07;;
830;SDS011;397;50.564;7.272;2022-10-17T16:46:28;13.07;;;6.03;;
830;SDS011;397;50.564;7.272;2022-10-17T16:48:56;11.50;;;4.47;;
830;SDS011;397;50.564;7.272;2022-10-17T16:51:24;11.23;;;4.63;;
830;SDS011;397;50.564;7.272;2022-10-17T16:53:54;12.83;;;4.83;;
830;SDS011;397;50.564;7.272;2022-10-17T16:56:23;9.40;;;4.57;;
830;SDS011;397;50.564;7.272;2022-10-17T16:58:52;8.50;;;5.13;;
830;SDS011;397;50.564;7.272;2022-10-17T17:01:21;7.07;;;4.60;;
830;SDS011;397;50.564;7.272;2022-10-17T17:03:50;7.00;;;4.03;;
830;SDS011;397;50.564;7.272;2022-10-17T17:06:19;13.67;;;4.47;;
830;SDS011;397;50.564;7.272;2022-10-17T17:08:52;10.87;;;4.73;;
830;SDS011;397;50.564;7.272;2022-10-17T17:11:21;9.90;;;3.77;;
830;SDS011;397;50.564;7.272;2022-10-17T17:13:50;10.50;;;3.57;;
830;SDS011;397;50.564;7.272;2022-10-17T17:16:20;12.07;;;4.50;;
830;SDS011;397;50.564;7.272;2022-10-17T17:18:52;8.00;;;4.17;;
830;SDS011;397;50.564;7.272;2022-10-17T17:21:22;9.40;;;4.97;;
830;SDS011;397;50.564;7.272;2022-10-17T17:23:52;7.70;;;4.50;;
830;SDS011;397;50.564;7.272;2022-10-17T17:26:24;6.90;;;4.03;;
830;SDS011;397;50.564;7.272;2022-10-17T17:28:55;10.63;;;4.90;;
830;SDS011;397;50.564;7.272;2022-10-17T17:31:25;7.50;;;3.57;;
830;SDS011;397;50.564;7.272;2022-10-17T17:33:54;12.07;;;6.07;;
830;SDS011;397;50.564;7.272;2022-10-17T17:36:24;9.80;;;3.90;;
830;SDS011;397;50.564;7.272;2022-10-17T17:38:54;5.23;;;4.10;;
830;SDS011;397;50.564;7.272;2022-10-17T17:41:23;9.50;;;5.27;;
830;SDS011;397;50.564;7.272;2022-10-17T17:43:51;14.50;;;4.50;;